Time;durP1;ratioP1;P1;durP2;ratioP2;P2;SDS_P1;SDS_P2;PMS_P1;PMS_P2;Temp;Humidity;BMP_temperature;BMP_pressure;BME280_temperature;BME280_humidity;BME280_pressure;Samples;Min_cycle;Max_cycle;Signal;HPM_P1;HPM_P2
2023/03/17 00:02:09;;;;;;;;;;;6.80;99.90;;;;;;5075603;28;19920;-63
2023/03/17 00:04:34;;;;;;;;;;;6.80;99.90;;;;;;5072926;28;19955;-64
2023/03/17 00:07:00;;;;;;;;;;;6.90;99.90;;;;;;5072799;28;19908;-62
2023/03/17 00:09:25;;;;;;;;;;;6.90;99.90;;;;;;5072010;28;20368;-63
2023/03/17 00:11:51;;;;;;;;;;;6.90;99.90;;;;;;5072838;28;19908;-63
2023/03/17 00:14:17;;;;;;;;;;;7.00;99.90;;;;;;5072852;28;19909;-63
2023/03/17 00:16:47;;;;;;;;;;;7.00;99.90;;;;;;5071892;28;19920;-64
2023/03/17 00:19:22;;;;;;;;;;;7.00;99.90;;;;;;5073163;28;19950;-63
2023/03/17 00:21:48;;;;;;;;;;;7.00;99.90;;;;;;5065335;28;19923;-63
2023/03/17 00:24:14;;;;;;;;;;;7.00;99.90;;;;;;5071879;28;20378;-64
2023/03/17 00:26:40;;;;;;;;;;;7.00;99.90;;;;;;5072530;28;20379;-64
2023/03/17 00:29:05;;;;;;;;;;;7.00;99.90;;;;;;5072810;28;20073;-62
2023/03/17 00:31:33;;;;;;;;;;;7.00;99.90;;;;;;5071694;28;20317;-63
2023/03/17 00:33:59;;;;;;;;;;;7.00;99.90;;;;;;5072733;28;20008;-64
2023/03/17 00:36:26;;;;;;;;;;;7.00;99.90;;;;;;5071695;28;19913;-64
2023/03/17 00:38:52;;;;;;;;;;;7.00;99.90;;;;;;5072847;28;19939;-64
2023/03/17 00:41:17;;;;;;;;;;;7.00;99.90;;;;;;5077554;28;19913;-62
2023/03/17 00:43:43;;;;;;;;;;;7.00;99.90;;;;;;5091428;28;19908;-63
2023/03/17 00:46:12;;;;;;;;;;;7.10;99.90;;;;;;5075020;28;19913;-64
2023/03/17 00:48:37;;;;;;;;;;;7.10;99.90;;;;;;5072469;28;19966;-63
2023/03/17 00:51:04;;;;;;;;;;;7.10;99.90;;;;;;5071644;28;19908;-63
2023/03/17 00:53:29;;;;;;;;;;;7.10;99.90;;;;;;5072480;28;19954;-63
2023/03/17 00:55:55;;;;;;;;;;;7.10;99.90;;;;;;5074883;28;20333;-64
2023/03/17 00:58:24;;;;;;;;;;;7.10;99.90;;;;;;5075673;28;19920;-62
2023/03/17 01:00:50;;;;;;;;;;;7.00;99.90;;;;;;5076081;28;19920;-64
2023/03/17 01:03:16;;;;;;;;;;;7.00;99.90;;;;;;5076197;28;19920;-64
2023/03/17 01:05:42;;;;;;;;;;;7.00;99.90;;;;;;5075301;28;19916;-63
2023/03/17 01:08:08;;;;;;;;;;;6.90;99.90;;;;;;5076154;28;19920;-63
2023/03/17 01:10:33;;;;;;;;;;;6.90;99.90;;;;;;5076168;28;20053;-64
2023/03/17 01:12:59;;;;;;;;;;;6.90;99.90;;;;;;5057544;28;19915;-63
2023/03/17 01:15:27;;;;;;;;;;;6.90;99.90;;;;;;5080391;28;19912;-63
2023/03/17 01:17:53;;;;;;;;;;;6.90;99.90;;;;;;5096404;28;19916;-64
2023/03/17 01:20:24;;;;;;;;;;;6.90;99.90;;;;;;5095585;28;20248;-63
2023/03/17 01:22:49;;;;;;;;;;;6.90;99.90;;;;;;5096164;28;19912;-63
2023/03/17 01:25:16;;;;;;;;;;;6.80;99.90;;;;;;5096246;28;20324;-64
2023/03/17 01:27:42;;;;;;;;;;;6.90;99.90;;;;;;5095212;28;19908;-63
2023/03/17 01:30:14;;;;;;;;;;;6.90;99.90;;;;;;5096135;28;20282;-63
2023/03/17 01:32:40;;;;;;;;;;;6.90;99.90;;;;;;5094963;28;19948;-63
2023/03/17 01:35:05;;;;;;;;;;;6.90;99.90;;;;;;5095919;28;19960;-63
2023/03/17 01:37:31;;;;;;;;;;;6.90;99.90;;;;;;5095867;28;19969;-63
2023/03/17 01:39:56;;;;;;;;;;;6.90;99.90;;;;;;5095210;28;20037;-64
2023/03/17 01:42:22;;;;;;;;;;;6.90;99.90;;;;;;5095674;28;19908;-63
2023/03/17 01:45:01;;;;;;;;;;;7.00;99.90;;;;;;5095826;28;19914;-63
2023/03/17 01:47:29;;;;;;;;;;;6.90;99.90;;;;;;5094901;28;19966;-64
2023/03/17 01:49:55;;;;;;;;;;;6.90;99.90;;;;;;5095765;28;19908;-62
2023/03/17 01:52:21;;;;;;;;;;;6.90;99.90;;;;;;5095565;28;19914;-64
2023/03/17 01:54:54;;;;;;;;;;;7.00;99.90;;;;;;5094881;28;19944;-63
2023/03/17 01:57:27;;;;;;;;;;;6.90;99.90;;;;;;5095494;28;19922;-64
2023/03/17 01:59:58;;;;;;;;;;;6.90;99.90;;;;;;5095008;28;19916;-63
2023/03/17 02:02:29;;;;;;;;;;;6.90;99.90;;;;;;5094540;28;19920;-63
2023/03/17 02:04:56;;;;;;;;;;;6.90;99.90;;;;;;5095565;28;19908;-64
2023/03/17 02:07:22;;;;;;;;;;;7.00;99.90;;;;;;5095271;28;19908;-64
2023/03/17 02:09:48;;;;;;;;;;;6.90;99.90;;;;;;5086250;28;20271;-63
2023/03/17 02:12:14;;;;;;;;;;;6.90;99.90;;;;;;5095202;28;19915;-63
2023/03/17 02:14:40;;;;;;;;;;;6.90;99.90;;;;;;5095193;28;19908;-63
2023/03/17 02:17:06;;;;;;;;;;;6.90;99.90;;;;;;5094372;28;19923;-63
2023/03/17 02:19:32;;;;;;;;;;;6.90;99.90;;;;;;5095016;28;19908;-64
2023/03/17 02:21:58;;;;;;;;;;;6.90;99.90;;;;;;5094544;28;20387;-63
2023/03/17 02:24:44;;;;;;;;;;;7.00;99.90;;;;;;5095027;28;19908;-64
2023/03/17 02:27:16;;;;;;;;;;;6.90;99.90;;;;;;5095058;28;20060;-64
2023/03/17 02:29:45;;;;;;;;;;;6.90;99.90;;;;;;5082830;28;20021;-64
2023/03/17 02:32:11;;;;;;;;;;;6.90;99.90;;;;;;5074421;28;20341;-64
2023/03/17 02:34:36;;;;;;;;;;;6.90;99.90;;;;;;5074756;28;19913;-64
2023/03/17 02:37:02;;;;;;;;;;;6.90;99.90;;;;;;5075016;28;19921;-64
2023/03/17 02:39:27;;;;;;;;;;;6.90;99.90;;;;;;5087935;28;19938;-63
2023/03/17 02:41:53;;;;;;;;;;;6.90;99.90;;;;;;5085739;28;20375;-63
2023/03/17 02:44:18;;;;;;;;;;;6.90;99.90;;;;;;5093938;28;19954;-65
2023/03/17 02:46:44;;;;;;;;;;;6.90;99.90;;;;;;5094593;28;19912;-63
2023/03/17 02:49:10;;;;;;;;;;;6.90;99.90;;;;;;5094381;28;19915;-64
2023/03/17 02:51:36;;;;;;;;;;;6.90;99.90;;;;;;5093706;28;19908;-65
2023/03/17 02:54:02;;;;;;;;;;;6.90;99.90;;;;;;5086219;28;19908;-63
2023/03/17 02:56:28;;;;;;;;;;;6.90;99.90;;;;;;5074080;28;19951;-64
2023/03/17 02:58:53;;;;;;;;;;;6.90;99.90;;;;;;5073374;28;19908;-64
2023/03/17 03:01:19;;;;;;;;;;;6.90;99.90;;;;;;5073827;28;20302;-64
2023/03/17 03:03:46;;;;;;;;;;;6.90;99.90;;;;;;5074220;28;20355;-64
2023/03/17 03:06:11;;;;;;;;;;;6.90;99.90;;;;;;5073296;28;19909;-64
2023/03/17 03:08:37;;;;;;;;;;;6.90;99.90;;;;;;5073955;28;19931;-64
2023/03/17 03:11:03;;;;;;;;;;;6.90;99.90;;;;;;5073472;28;20363;-64
2023/03/17 03:13:30;;;;;;;;;;;6.90;99.90;;;;;;5073645;28;20286;-63
2023/03/17 03:15:55;;;;;;;;;;;6.90;99.90;;;;;;5074043;28;19909;-63
2023/03/17 03:18:21;;;;;;;;;;;6.90;99.90;;;;;;5073503;28;19913;-64
2023/03/17 03:20:46;;;;;;;;;;;6.90;99.90;;;;;;5092233;28;19912;-64
2023/03/17 03:23:13;;;;;;;;;;;6.90;99.90;;;;;;5093984;28;19947;-64
2023/03/17 03:25:38;;;;;;;;;;;6.90;99.90;;;;;;5092994;28;19955;-64
2023/03/17 03:28:07;;;;;;;;;;;6.90;99.90;;;;;;5093844;28;19943;-64
2023/03/17 03:30:33;;;;;;;;;;;6.90;99.90;;;;;;5093717;28;19908;-63
2023/03/17 03:32:59;;;;;;;;;;;6.80;99.90;;;;;;5092893;28;19908;-64
2023/03/17 03:35:24;;;;;;;;;;;6.80;99.90;;;;;;5093656;28;19908;-63
2023/03/17 03:37:50;;;;;;;;;;;6.90;99.90;;;;;;5093620;28;19924;-64
2023/03/17 03:40:15;;;;;;;;;;;6.90;99.90;;;;;;5072955;28;19912;-64
2023/03/17 03:42:41;;;;;;;;;;;6.80;99.90;;;;;;5073349;28;20336;-64
2023/03/17 03:45:07;;;;;;;;;;;6.90;99.90;;;;;;5055404;28;20007;-63
2023/03/17 03:47:32;;;;;;;;;;;6.90;99.90;;;;;;5072127;28;19908;-64
2023/03/17 03:49:57;;;;;;;;;;;6.90;99.90;;;;;;5073229;28;19909;-64
2023/03/17 03:52:23;;;;;;;;;;;6.90;99.90;;;;;;5073108;28;20358;-63
2023/03/17 03:54:48;;;;;;;;;;;6.80;99.90;;;;;;5072198;28;19908;-63
2023/03/17 03:57:14;;;;;;;;;;;6.90;99.90;;;;;;5073018;28;20013;-64
2023/03/17 03:59:39;;;;;;;;;;;6.80;99.90;;;;;;5072989;28;19915;-65
2023/03/17 04:02:05;;;;;;;;;;;6.90;99.90;;;;;;5072146;28;19959;-64
2023/03/17 04:04:31;;;;;;;;;;;6.80;99.90;;;;;;5072937;28;19908;-63
2023/03/17 04:06:57;;;;;;;;;;;6.80;99.90;;;;;;5072889;28;20298;-64
2023/03/17 04:09:22;;;;;;;;;;;6.80;99.90;;;;;;5072049;28;19912;-64
2023/03/17 04:11:48;;;;;;;;;;;6.80;99.90;;;;;;5072944;28;19913;-64
2023/03/17 04:14:13;;;;;;;;;;;6.80;99.90;;;;;;5073142;28;20363;-64
2023/03/17 04:16:39;;;;;;;;;;;6.80;99.90;;;;;;5071893;28;19923;-63
2023/03/17 04:19:05;;;;;;;;;;;6.80;99.90;;;;;;5072649;28;20007;-63
2023/03/17 04:21:31;;;;;;;;;;;6.80;99.90;;;;;;5071798;28;19908;-63
2023/03/17 04:23:56;;;;;;;;;;;6.70;99.90;;;;;;5072613;28;19912;-64
2023/03/17 04:26:22;;;;;;;;;;;6.70;99.90;;;;;;5072734;28;19909;-63
2023/03/17 04:28:48;;;;;;;;;;;6.70;99.90;;;;;;5063163;28;20252;-64
2023/03/17 04:31:14;;;;;;;;;;;6.70;99.90;;;;;;5072027;28;19909;-64
2023/03/17 04:33:39;;;;;;;;;;;6.70;99.90;;;;;;5072610;28;20314;-64
2023/03/17 04:36:06;;;;;;;;;;;6.70;99.90;;;;;;5071860;28;19909;-64
2023/03/17 04:38:32;;;;;;;;;;;6.70;99.90;;;;;;5076542;28;19923;-63
2023/03/17 04:40:57;;;;;;;;;;;6.70;99.90;;;;;;5092821;28;19909;-62
2023/03/17 04:43:23;;;;;;;;;;;6.70;99.90;;;;;;5091871;28;19999;-62
2023/03/17 04:45:49;;;;;;;;;;;6.70;99.90;;;;;;5092664;28;19916;-63
2023/03/17 04:48:14;;;;;;;;;;;6.70;99.90;;;;;;5092189;28;20362;-63
2023/03/17 04:50:41;;;;;;;;;;;6.60;99.90;;;;;;5091829;28;19912;-63
2023/03/17 04:53:07;;;;;;;;;;;6.60;99.90;;;;;;5092614;28;19908;-63
2023/03/17 04:55:33;;;;;;;;;;;6.60;99.90;;;;;;5092825;28;19938;-63
2023/03/17 04:57:59;;;;;;;;;;;6.60;99.90;;;;;;5089742;28;19920;-63
2023/03/17 05:00:25;;;;;;;;;;;6.60;99.90;;;;;;5072063;28;19928;-63
2023/03/17 05:02:50;;;;;;;;;;;6.60;99.90;;;;;;5072411;28;19912;-63
2023/03/17 05:05:16;;;;;;;;;;;6.60;99.90;;;;;;5071631;28;19916;-63
2023/03/17 05:07:43;;;;;;;;;;;6.60;99.90;;;;;;5072312;28;20329;-63
2023/03/17 05:10:10;;;;;;;;;;;6.60;99.90;;;;;;5072351;28;19908;-62
2023/03/17 05:12:35;;;;;;;;;;;6.60;99.90;;;;;;5071380;28;20351;-63
2023/03/17 05:15:01;;;;;;;;;;;6.60;99.90;;;;;;5072250;28;19916;-63
2023/03/17 05:17:26;;;;;;;;;;;6.60;99.90;;;;;;5072051;28;19920;-64
2023/03/17 05:19:52;;;;;;;;;;;6.60;99.90;;;;;;5090680;28;19908;-63
2023/03/17 05:22:17;;;;;;;;;;;6.60;99.90;;;;;;5092371;28;19935;-64
2023/03/17 05:24:43;;;;;;;;;;;6.60;99.90;;;;;;5091765;28;19912;-63
2023/03/17 05:27:09;;;;;;;;;;;6.60;99.90;;;;;;5091997;28;19915;-63
2023/03/17 05:29:34;;;;;;;;;;;6.70;99.90;;;;;;5092276;28;19912;-62
2023/03/17 05:31:59;;;;;;;;;;;6.70;99.90;;;;;;5091521;28;19912;-64
2023/03/17 05:34:25;;;;;;;;;;;6.70;99.90;;;;;;5092113;28;20366;-63
2023/03/17 05:36:51;;;;;;;;;;;6.70;99.90;;;;;;5092160;28;19916;-63
2023/03/17 05:39:16;;;;;;;;;;;6.70;99.90;;;;;;5073949;28;19912;-63
2023/03/17 05:41:42;;;;;;;;;;;6.70;99.90;;;;;;5073860;28;19919;-63
2023/03/17 05:44:07;;;;;;;;;;;6.70;99.90;;;;;;5075488;28;19954;-63
2023/03/17 05:46:33;;;;;;;;;;;6.60;99.90;;;;;;5074978;28;19999;-62
2023/03/17 05:48:58;;;;;;;;;;;6.60;99.90;;;;;;5075566;28;19995;-63
2023/03/17 05:51:24;;;;;;;;;;;6.60;99.90;;;;;;5075360;28;19913;-63
2023/03/17 05:53:49;;;;;;;;;;;6.50;99.90;;;;;;5074679;28;19987;-64
2023/03/17 05:56:15;;;;;;;;;;;6.50;99.90;;;;;;5075409;28;20411;-63
2023/03/17 05:58:40;;;;;;;;;;;6.50;99.90;;;;;;5075247;28;19912;-63
2023/03/17 06:01:06;;;;;;;;;;;6.50;99.90;;;;;;5074290;28;20371;-63
2023/03/17 06:03:32;;;;;;;;;;;6.50;99.90;;;;;;5075239;28;19909;-63
2023/03/17 06:05:58;;;;;;;;;;;6.60;99.90;;;;;;5075332;28;19959;-63
2023/03/17 06:08:23;;;;;;;;;;;6.60;99.90;;;;;;5074506;28;19948;-63
2023/03/17 06:10:49;;;;;;;;;;;6.80;99.90;;;;;;5075507;28;19944;-63
2023/03/17 06:13:14;;;;;;;;;;;6.80;99.90;;;;;;5057263;28;19908;-63
2023/03/17 06:15:41;;;;;;;;;;;6.90;99.90;;;;;;5074177;28;19920;-63
2023/03/17 06:18:06;;;;;;;;;;;7.00;99.90;;;;;;5085770;28;20343;-64
2023/03/17 06:20:32;;;;;;;;;;;7.00;99.90;;;;;;5095204;28;20002;-64
2023/03/17 06:22:59;;;;;;;;;;;7.10;99.90;;;;;;5089224;28;19912;-63
2023/03/17 06:25:24;;;;;;;;;;;7.10;99.90;;;;;;5083964;28;20003;-64
2023/03/17 06:27:53;;;;;;;;;;;7.20;99.90;;;;;;5084698;28;20006;-64
2023/03/17 06:30:19;;;;;;;;;;;7.40;99.90;;;;;;5107936;28;19935;-63
2023/03/17 06:32:44;;;;;;;;;;;7.40;99.90;;;;;;5115227;28;20359;-64
2023/03/17 06:35:10;;;;;;;;;;;7.50;99.90;;;;;;5114741;28;19919;-64
2023/03/17 06:37:36;;;;;;;;;;;7.50;99.90;;;;;;5115124;28;20000;-64
2023/03/17 06:40:04;;;;;;;;;;;7.60;99.90;;;;;;5115252;28;19908;-63
2023/03/17 06:42:30;;;;;;;;;;;7.70;99.90;;;;;;5114319;28;20010;-64
2023/03/17 06:44:56;;;;;;;;;;;7.80;99.90;;;;;;5085003;28;20008;-64
2023/03/17 06:47:21;;;;;;;;;;;7.90;99.90;;;;;;5095072;28;19918;-64
2023/03/17 06:49:47;;;;;;;;;;;8.00;99.90;;;;;;5092731;28;19908;-62
2023/03/17 06:52:12;;;;;;;;;;;8.00;99.90;;;;;;5078391;28;19919;-63
2023/03/17 06:54:38;;;;;;;;;;;8.20;99.90;;;;;;5087971;28;19915;-63
2023/03/17 06:57:03;;;;;;;;;;;8.20;99.90;;;;;;5075251;28;20287;-63
2023/03/17 06:59:29;;;;;;;;;;;8.30;99.90;;;;;;5087094;28;19967;-63
2023/03/17 07:01:55;;;;;;;;;;;8.30;99.90;;;;;;5094154;28;19924;-63
2023/03/17 07:04:20;;;;;;;;;;;8.40;99.90;;;;;;5093350;28;19953;-62
2023/03/17 07:06:46;;;;;;;;;;;8.40;99.90;;;;;;5094310;28;20422;-62
2023/03/17 07:09:11;;;;;;;;;;;8.50;99.90;;;;;;5074323;28;19909;-62
2023/03/17 07:11:37;;;;;;;;;;;8.60;99.90;;;;;;5073120;28;19916;-62
2023/03/17 07:14:02;;;;;;;;;;;8.60;99.90;;;;;;5073969;28;19909;-62
2023/03/17 07:16:28;;;;;;;;;;;8.70;99.90;;;;;;5082344;28;20002;-62
2023/03/17 07:18:54;;;;;;;;;;;8.70;99.90;;;;;;5093354;28;19907;-63
2023/03/17 07:21:19;;;;;;;;;;;8.70;99.90;;;;;;5094022;28;20013;-63
2023/03/17 07:23:45;;;;;;;;;;;8.90;99.90;;;;;;5093988;28;20031;-62
2023/03/17 07:26:10;;;;;;;;;;;8.90;99.90;;;;;;5092893;28;19938;-62
2023/03/17 07:28:36;;;;;;;;;;;9.00;99.90;;;;;;5093830;28;20426;-63
2023/03/17 07:31:01;;;;;;;;;;;9.00;99.90;;;;;;5093830;28;19917;-63
2023/03/17 07:33:27;;;;;;;;;;;9.10;99.90;;;;;;5092830;28;20079;-63
2023/03/17 07:35:52;;;;;;;;;;;9.20;99.90;;;;;;5093752;28;20313;-63
2023/03/17 07:38:18;;;;;;;;;;;9.30;99.90;;;;;;5092301;28;19928;-63
2023/03/17 07:40:46;;;;;;;;;;;9.40;99.10;;;;;;5085200;28;19909;-64
2023/03/17 07:43:12;;;;;;;;;;;9.40;99.00;;;;;;5087840;28;19909;-63
2023/03/17 07:45:38;;;;;;;;;;;9.50;98.70;;;;;;5072401;28;20367;-63
2023/03/17 07:48:04;;;;;;;;;;;9.50;99.80;;;;;;5073225;28;19916;-64
2023/03/17 07:50:30;;;;;;;;;;;9.60;99.50;;;;;;5074830;28;19916;-63
2023/03/17 07:52:56;;;;;;;;;;;9.60;99.70;;;;;;5085321;28;20373;-63
2023/03/17 07:55:22;;;;;;;;;;;9.70;98.20;;;;;;5080504;28;19913;-62
2023/03/17 07:57:47;;;;;;;;;;;9.70;99.50;;;;;;5071888;28;19927;-62
2023/03/17 08:00:13;;;;;;;;;;;9.80;99.70;;;;;;5069867;28;19913;-63
2023/03/17 08:02:39;;;;;;;;;;;9.80;99.00;;;;;;5091822;28;19908;-63
2023/03/17 08:05:06;;;;;;;;;;;9.90;99.60;;;;;;5093054;28;19908;-64
2023/03/17 08:07:32;;;;;;;;;;;10.00;99.80;;;;;;5092292;28;19915;-63
2023/03/17 08:09:57;;;;;;;;;;;10.10;99.90;;;;;;5089247;28;19916;-64
2023/03/17 08:12:24;;;;;;;;;;;10.20;98.90;;;;;;5093072;28;19908;-64
2023/03/17 08:14:50;;;;;;;;;;;10.30;99.90;;;;;;5092348;28;19908;-65
2023/03/17 08:17:16;;;;;;;;;;;10.40;97.60;;;;;;5076055;28;19940;-64
2023/03/17 08:19:42;;;;;;;;;;;10.40;99.70;;;;;;5072697;28;19909;-64
2023/03/17 08:22:08;;;;;;;;;;;10.50;93.40;;;;;;5054005;28;19912;-64
2023/03/17 08:24:34;;;;;;;;;;;10.40;95.80;;;;;;5072466;28;19970;-63
2023/03/17 08:26:59;;;;;;;;;;;10.50;95.00;;;;;;5072691;28;19997;-63
2023/03/17 08:29:25;;;;;;;;;;;10.60;98.40;;;;;;5071904;28;19909;-63
2023/03/17 08:31:50;;;;;;;;;;;10.60;99.10;;;;;;5090322;28;20054;-63
2023/03/17 08:34:16;;;;;;;;;;;10.60;95.00;;;;;;5096197;28;20363;-63
2023/03/17 08:36:41;;;;;;;;;;;10.70;94.50;;;;;;5081421;28;19922;-63
2023/03/17 08:39:09;;;;;;;;;;;10.70;96.20;;;;;;5092771;28;19919;-64
2023/03/17 08:41:35;;;;;;;;;;;10.80;95.00;;;;;;5092625;28;20413;-63
2023/03/17 08:44:01;;;;;;;;;;;10.80;92.70;;;;;;5091975;28;19908;-63
2023/03/17 08:46:28;;;;;;;;;;;10.90;93.90;;;;;;5092723;28;19954;-63
2023/03/17 08:48:55;;;;;;;;;;;11.10;95.90;;;;;;5091954;28;19908;-63
2023/03/17 08:51:21;;;;;;;;;;;11.10;92.80;;;;;;5092624;28;20339;-64
2023/03/17 08:53:47;;;;;;;;;;;11.30;94.60;;;;;;5092347;28;19999;-64
2023/03/17 08:56:13;;;;;;;;;;;11.30;91.90;;;;;;5091893;28;20007;-63
2023/03/17 08:58:39;;;;;;;;;;;11.40;92.70;;;;;;5092605;28;20011;-63
2023/03/17 09:01:05;;;;;;;;;;;11.40;87.30;;;;;;5092342;28;19965;-64
2023/03/17 09:03:32;;;;;;;;;;;11.40;90.20;;;;;;5078436;28;19920;-64
2023/03/17 09:05:58;;;;;;;;;;;11.50;88.50;;;;;;5083241;28;19912;-64
2023/03/17 09:08:25;;;;;;;;;;;11.50;91.30;;;;;;5092353;28;19959;-63
2023/03/17 09:10:50;;;;;;;;;;;11.50;88.90;;;;;;5075550;28;20310;-64
2023/03/17 09:13:16;;;;;;;;;;;11.50;85.40;;;;;;5075298;28;19927;-63
2023/03/17 09:15:44;;;;;;;;;;;11.60;86.30;;;;;;5094517;28;20563;-63
2023/03/17 09:18:10;;;;;;;;;;;11.70;87.00;;;;;;5086007;28;19956;-64
2023/03/17 09:20:36;;;;;;;;;;;11.80;88.90;;;;;;5087379;28;20398;-63
2023/03/17 09:23:05;;;;;;;;;;;11.80;84.60;;;;;;5075947;28;19919;-63
2023/03/17 09:25:30;;;;;;;;;;;11.90;84.70;;;;;;5075262;28;19970;-63
2023/03/17 09:27:56;;;;;;;;;;;12.00;85.80;;;;;;5082356;28;20356;-63
2023/03/17 09:30:21;;;;;;;;;;;12.00;86.00;;;;;;5085144;28;20418;-64
2023/03/17 09:32:47;;;;;;;;;;;12.20;87.40;;;;;;5074896;28;19919;-63
2023/03/17 09:35:13;;;;;;;;;;;12.40;89.30;;;;;;5076171;28;20004;-64
2023/03/17 09:37:38;;;;;;;;;;;12.60;87.10;;;;;;5080316;28;20338;-63
2023/03/17 09:40:07;;;;;;;;;;;12.70;87.00;;;;;;5085839;28;19970;-63
2023/03/17 09:42:33;;;;;;;;;;;12.90;88.30;;;;;;5061418;28;19960;-63
2023/03/17 09:45:20;;;;;;;;;;;12.90;84.40;;;;;;5085171;28;19951;-63
2023/03/17 09:47:49;;;;;;;;;;;13.10;84.60;;;;;;5082489;28;19985;-64
2023/03/17 09:50:17;;;;;;;;;;;13.20;80.00;;;;;;5087081;28;19920;-64
2023/03/17 09:52:44;;;;;;;;;;;13.20;78.90;;;;;;5086823;28;19911;-64
2023/03/17 09:55:15;;;;;;;;;;;13.40;81.00;;;;;;5096501;28;19909;-62
2023/03/17 09:57:41;;;;;;;;;;;13.40;80.50;;;;;;5082863;28;19951;-64
2023/03/17 10:00:17;;;;;;;;;;;13.40;79.00;;;;;;5089907;28;19951;-64
2023/03/17 10:02:43;;;;;;;;;;;13.50;79.40;;;;;;5091590;28;19916;-64
2023/03/17 10:05:29;;;;;;;;;;;13.50;74.30;;;;;;5094457;28;19912;-64
2023/03/17 10:08:03;;;;;;;;;;;13.50;75.00;;;;;;5095206;28;20330;-63
2023/03/17 10:10:36;;;;;;;;;;;13.70;79.10;;;;;;5093232;28;19929;-64
2023/03/17 10:13:20;;;;;;;;;;;13.80;80.10;;;;;;5075810;28;20626;-63
2023/03/17 10:16:09;;;;;;;;;;;14.00;77.90;;;;;;5080561;28;20362;-63
2023/03/17 10:18:43;;;;;;;;;;;14.10;77.30;;;;;;5078889;28;19939;-64
2023/03/17 10:21:12;;;;;;;;;;;14.10;76.80;;;;;;5093737;28;19969;-63
2023/03/17 10:23:38;;;;;;;;;;;14.20;77.00;;;;;;5081149;28;19912;-64
2023/03/17 10:26:06;;;;;;;;;;;14.20;76.90;;;;;;5075470;28;19908;-65
2023/03/17 10:28:37;;;;;;;;;;;14.40;80.20;;;;;;5073733;28;19909;-64
2023/03/17 10:31:15;;;;;;;;;;;14.60;78.90;;;;;;5075062;28;19908;-63
2023/03/17 10:33:41;;;;;;;;;;;14.60;77.30;;;;;;5078025;28;19916;-64
2023/03/17 10:36:08;;;;;;;;;;;14.70;81.50;;;;;;5093944;28;19916;-65
2023/03/17 10:38:34;;;;;;;;;;;14.70;82.70;;;;;;5094743;28;19919;-64
2023/03/17 10:41:04;;;;;;;;;;;14.70;80.00;;;;;;5095671;28;19908;-64
2023/03/17 10:43:34;;;;;;;;;;;14.80;82.00;;;;;;5095057;28;19931;-64
2023/03/17 10:46:02;;;;;;;;;;;15.00;80.60;;;;;;5095341;28;20065;-65
2023/03/17 10:48:28;;;;;;;;;;;15.10;78.10;;;;;;5095053;28;19908;-63
2023/03/17 10:50:56;;;;;;;;;;;15.20;79.50;;;;;;5078913;28;20001;-63
2023/03/17 10:53:26;;;;;;;;;;;15.30;77.10;;;;;;5081916;28;20070;-63
2023/03/17 10:55:57;;;;;;;;;;;15.30;76.60;;;;;;5086794;28;19915;-62
2023/03/17 10:58:35;;;;;;;;;;;15.30;78.30;;;;;;5094681;28;19916;-63
2023/03/17 11:01:26;;;;;;;;;;;15.50;77.30;;;;;;5094601;28;19942;-63
2023/03/17 11:03:52;;;;;;;;;;;15.30;74.20;;;;;;5090766;28;20244;-63
2023/03/17 11:06:19;;;;;;;;;;;15.10;76.60;;;;;;5094923;28;20393;-62
2023/03/17 11:08:48;;;;;;;;;;;15.00;76.00;;;;;;5094750;28;19908;-64
2023/03/17 11:11:25;;;;;;;;;;;15.10;81.90;;;;;;5094385;28;20344;-63
2023/03/17 11:13:59;;;;;;;;;;;15.10;81.90;;;;;;5075459;28;19912;-63
2023/03/17 11:16:25;;;;;;;;;;;15.20;79.00;;;;;;5073857;28;20268;-62
2023/03/17 11:18:53;;;;;;;;;;;15.30;80.80;;;;;;5074414;28;19948;-63
2023/03/17 11:21:45;;;;;;;;;;;15.30;76.80;;;;;;5074477;28;19954;-63
2023/03/17 11:24:22;;;;;;;;;;;15.30;78.70;;;;;;5073940;28;19909;-64
2023/03/17 11:26:48;;;;;;;;;;;15.20;77.50;;;;;;5074291;28;20355;-62
2023/03/17 11:29:14;;;;;;;;;;;15.30;82.20;;;;;;5074238;28;19999;-63
2023/03/17 11:31:46;;;;;;;;;;;15.30;84.40;;;;;;5073748;28;19912;-64
2023/03/17 11:34:18;;;;;;;;;;;15.50;83.60;;;;;;5074302;28;19909;-63
2023/03/17 11:36:47;;;;;;;;;;;15.70;80.00;;;;;;5074446;28;19966;-64
2023/03/17 11:39:19;;;;;;;;;;;16.10;77.60;;;;;;5073753;28;20443;-64
2023/03/17 11:41:45;;;;;;;;;;;16.40;79.00;;;;;;5074436;28;19975;-66
2023/03/17 11:44:13;;;;;;;;;;;16.60;74.60;;;;;;5086901;28;19912;-64
2023/03/17 11:46:57;;;;;;;;;;;16.70;72.60;;;;;;5091356;28;19961;-63
2023/03/17 11:49:36;;;;;;;;;;;16.80;74.00;;;;;;5099000;28;19912;-64
2023/03/17 11:52:21;;;;;;;;;;;16.90;69.80;;;;;;5081426;28;19919;-62
2023/03/17 11:55:05;;;;;;;;;;;17.10;71.70;;;;;;5083527;28;20364;-63
2023/03/17 11:57:53;;;;;;;;;;;17.10;68.80;;;;;;5081032;28;19963;-63
2023/03/17 12:00:22;;;;;;;;;;;17.00;67.80;;;;;;5065986;28;19912;-64
2023/03/17 12:02:52;;;;;;;;;;;17.10;69.40;;;;;;5074058;28;20359;-63
2023/03/17 12:05:21;;;;;;;;;;;17.00;70.00;;;;;;5073811;28;19908;-63
2023/03/17 12:07:47;;;;;;;;;;;17.00;70.30;;;;;;5073375;28;19916;-63
2023/03/17 12:10:24;;;;;;;;;;;17.10;69.80;;;;;;5074546;28;19912;-63
2023/03/17 12:13:08;;;;;;;;;;;17.10;70.20;;;;;;5073545;28;19954;-63
2023/03/17 12:15:36;;;;;;;;;;;17.20;71.60;;;;;;5073756;28;19908;-62
2023/03/17 12:18:14;;;;;;;;;;;16.90;66.20;;;;;;5073631;28;20398;-63
2023/03/17 12:20:55;;;;;;;;;;;16.80;67.70;;;;;;5076731;28;20347;-63
2023/03/17 12:23:31;;;;;;;;;;;16.90;69.40;;;;;;5093173;28;19912;-64
2023/03/17 12:25:57;;;;;;;;;;;17.00;70.50;;;;;;5093930;28;19969;-63
2023/03/17 12:28:31;;;;;;;;;;;17.00;66.80;;;;;;5093177;28;19935;-64
2023/03/17 12:30:59;;;;;;;;;;;16.90;67.40;;;;;;5094230;28;19908;-63
2023/03/17 12:33:28;;;;;;;;;;;16.90;66.30;;;;;;5093999;28;19994;-63
2023/03/17 12:35:53;;;;;;;;;;;17.10;68.10;;;;;;5093526;28;19908;-63
2023/03/17 12:38:26;;;;;;;;;;;17.20;65.60;;;;;;5093749;28;20069;-64
2023/03/17 12:41:10;;;;;;;;;;;17.30;68.80;;;;;;5092199;28;20339;-63
2023/03/17 12:43:45;;;;;;;;;;;17.40;68.40;;;;;;5080318;28;19912;-64
2023/03/17 12:46:14;;;;;;;;;;;17.40;66.20;;;;;;5076646;28;19912;-64
2023/03/17 12:48:48;;;;;;;;;;;17.40;66.40;;;;;;5081982;28;19915;-63
2023/03/17 12:51:32;;;;;;;;;;;17.40;65.90;;;;;;5075908;28;20378;-64
2023/03/17 12:53:59;;;;;;;;;;;17.40;67.80;;;;;;5077822;28;20412;-63
2023/03/17 12:56:28;;;;;;;;;;;17.40;65.50;;;;;;5077030;28;19953;-65
2023/03/17 12:59:17;;;;;;;;;;;17.20;65.40;;;;;;5077907;28;19969;-63
2023/03/17 13:01:45;;;;;;;;;;;17.20;66.60;;;;;;5054384;28;19927;-63
2023/03/17 13:04:28;;;;;;;;;;;17.10;68.20;;;;;;5063041;28;19912;-63
2023/03/17 13:07:09;;;;;;;;;;;17.10;66.50;;;;;;5061171;28;19912;-63
2023/03/17 13:09:35;;;;;;;;;;;17.10;65.60;;;;;;5064296;28;19913;-64
2023/03/17 13:12:02;;;;;;;;;;;17.10;66.80;;;;;;5059608;28;19966;-63
2023/03/17 13:14:41;;;;;;;;;;;17.20;69.00;;;;;;5062344;28;20425;-63
2023/03/17 13:17:19;;;;;;;;;;;17.20;69.00;;;;;;5072678;28;19962;-63
2023/03/17 13:20:04;;;;;;;;;;;17.40;65.40;;;;;;5076395;28;19934;-66
2023/03/17 13:22:39;;;;;;;;;;;17.50;65.60;;;;;;5040485;28;19921;-63
2023/03/17 13:25:31;;;;;;;;;;;17.50;64.20;;;;;;5065039;28;19912;-64
2023/03/17 13:28:09;;;;;;;;;;;17.40;63.60;;;;;;5052991;28;20268;-65
2023/03/17 13:30:35;;;;;;;;;;;17.60;65.80;;;;;;5055464;28;19956;-63
2023/03/17 13:33:18;;;;;;;;;;;17.70;65.50;;;;;;5055988;28;19916;-63
2023/03/17 13:35:44;;;;;;;;;;;17.60;63.40;;;;;;5070286;28;19917;-62
2023/03/17 13:38:09;;;;;;;;;;;17.50;63.40;;;;;;5057024;28;20368;-63
2023/03/17 13:40:37;;;;;;;;;;;17.50;64.60;;;;;;5056392;28;20384;-63
2023/03/17 13:43:08;;;;;;;;;;;17.70;65.60;;;;;;5056190;28;19908;-63
2023/03/17 13:45:38;;;;;;;;;;;18.00;66.00;;;;;;5055266;28;19921;-63
2023/03/17 13:48:22;;;;;;;;;;;18.20;62.50;;;;;;5072113;28;19928;-63
2023/03/17 13:50:52;;;;;;;;;;;18.10;62.60;;;;;;5075856;28;20428;-63
2023/03/17 13:53:22;;;;;;;;;;;18.20;63.90;;;;;;5075241;28;19908;-62
2023/03/17 13:56:06;;;;;;;;;;;18.10;64.10;;;;;;5075642;28;19909;-63
2023/03/17 13:58:33;;;;;;;;;;;18.00;64.50;;;;;;5074952;28;19917;-62
2023/03/17 14:01:01;;;;;;;;;;;18.00;63.60;;;;;;5083939;28;19964;-62
2023/03/17 14:03:35;;;;;;;;;;;18.10;65.80;;;;;;5091456;28;19912;-62
2023/03/17 14:06:05;;;;;;;;;;;17.90;65.60;;;;;;5075233;28;19912;-63
2023/03/17 14:08:32;;;;;;;;;;;17.90;64.80;;;;;;5090529;28;19908;-63
2023/03/17 14:10:59;;;;;;;;;;;17.60;65.90;;;;;;5096925;28;19916;-62
2023/03/17 14:13:27;;;;;;;;;;;17.60;65.90;;;;;;5090234;28;19916;-62
2023/03/17 14:15:59;;;;;;;;;;;17.60;64.70;;;;;;5076209;28;19909;-63
2023/03/17 14:18:31;;;;;;;;;;;17.60;68.40;;;;;;5094703;28;19920;-64
2023/03/17 14:20:57;;;;;;;;;;;17.50;68.90;;;;;;5077701;28;19912;-63
2023/03/17 14:23:23;;;;;;;;;;;17.50;70.80;;;;;;5096342;28;19908;-63
2023/03/17 14:25:49;;;;;;;;;;;17.40;68.20;;;;;;5096291;28;19908;-63
2023/03/17 14:28:15;;;;;;;;;;;17.20;65.50;;;;;;5093384;28;20007;-63
2023/03/17 14:30:50;;;;;;;;;;;17.20;66.50;;;;;;5075840;28;19909;-63